Sedco 712 — YJTL5 — position and weather

sailwx.info

Track history (hours):
 
Tides and Currents Weather Stations Pressure Air Temp Water Temp Dewpoint Dewpoint Depression Visibility Wind Speed Wind Dir Waves Ship Positions

Sedco 712

Last reported at 2018-Jan-21 22:00 UTC. Time now 2018-Jan-21 23:53 UTC.
Position N 61°18' E 001°30'.

Length 90 m; draft 7 m.

Type: Ship. MMSI: 577181000.

Wind from 170

Waves 2.0 meters (7 feet)

Air temperature 5.8 ° C
Visibility: greater than 10.8 NM
Dewpoint -0.2 ° C

Date/timePositionNaut miles runAvg speedWind from/ knotsBaromVisibWave heightAir tempDewpointWater temp
2018-Jan-21 22:00N 61°18' E 001°30'0 0.0 170 10.8 2.0 5.8-0.2
2018-Jan-21 21:00N 61°18' E 001°30'0 0.0 170 10.8 1.8 5.4-0.3
2018-Jan-21 20:00N 61°18' E 001°30'0 0.0 160 10.8 1.6 5.5 0.3
2018-Jan-21 19:00N 61°18' E 001°30'0 0.0 160 10.8 1.6 5.0-0.4
2018-Jan-21 18:00N 61°18' E 001°30'0 0.0 150 10.8 1.5 5.7-0.0
2018-Jan-21 17:00N 61°18' E 001°30'0 0.0 150 10.8 1.5 5.3-1.9
2018-Jan-21 16:00N 61°18' E 001°30'0 0.0 160 10.8 1.6 5.2-1.3
2018-Jan-21 15:00N 61°18' E 001°30'0 0.0 170
2018-Jan-21 14:00N 61°18' E 001°30'0 0.0
2018-Jan-21 13:00N 61°18' E 001°30'0 0.0
2018-Jan-21 10:00N 61°18' E 001°30'0 0.0 200 10.8 1.8 4.3-1.0
2018-Jan-21 09:00N 61°18' E 001°30'0 0.0 220 10.8 1.8 4.6-0.5
2018-Jan-21 08:00N 61°18' E 001°30'0 0.0 330 10.8 1.8 4.6-0.6
2018-Jan-21 07:00N 61°18' E 001°30'0 0.0 320 10.8 1.8 4.9-0.2
2018-Jan-21 06:00N 61°18' E 001°30'0 0.0 220 10.8 1.9 3.6-1.3
2018-Jan-21 05:00N 61°18' E 001°30'0 0.0 300 5.4 2.0 4.6-1.0
2018-Jan-21 04:00N 61°18' E 001°30'0 0.0 310 10.8 1.9 5.0-0.9
2018-Jan-21 03:00N 61°18' E 001°30'0 0.0 310 10.8 2.1 5.0-1.5
2018-Jan-21 02:00N 61°18' E 001°30'0 0.0 310 10.8 2.0 5.0-1.0
2018-Jan-21 01:00N 61°18' E 001°30'0 0.0 320 10.8 2.1 4.7-0.9
2018-Jan-21 00:00N 61°18' E 001°30'0 0.0 320 10.8 2.0 4.2-1.0
2018-Jan-20 23:00N 61°18' E 001°30'0 0.0 300 10.8 2.3 4.2-0.2
2018-Jan-20 22:00N 61°18' E 001°30'0 0.0 030 10.8 2.3 3.3-0.4
2018-Jan-20 21:00N 61°18' E 001°30'0 0.0 030 10.8 2.3 3.1-0.6
2018-Jan-20 20:00N 61°18' E 001°30'0 0.0 020 10.8 2.1 3.9-0.2
2018-Jan-20 19:00N 61°18' E 001°30'0 0.0 060 10.8 2.6 3.8-0.3
2018-Jan-20 18:00N 61°18' E 001°30'0 0.0 020 10.8 2.3 4.7-1.6
2018-Jan-20 17:00N 61°18' E 001°30'0 0.0 010 10.8 2.4 4.2-1.6
2018-Jan-20 16:00N 61°18' E 001°30'0 0.0 360 10.8 2.5 4.0-1.5
2018-Jan-20 15:00N 61°18' E 001°30'0 0.0 240 10.8 2.5 3.4-1.2
2018-Jan-20 14:00N 61°18' E 001°30'0 0.0 150 10.8 2.7 3.2-1.0
2018-Jan-20 13:00N 61°18' E 001°30'0 0.0 120 10.8 2.8 3.7-0.8
2018-Jan-20 12:00N 61°18' E 001°30'0 0.0 130 10.8 2.9 4.9-0.2
2018-Jan-20 11:00N 61°18' E 001°30'0 0.0 160 10.8 2.6 4.3-1.7
2018-Jan-20 10:00N 61°18' E 001°30'0 0.0 160 10.8 2.5 4.1-1.2
2018-Jan-20 09:00N 61°18' E 001°30'0 0.0 160 10.8 2.6 3.2-1.5
2018-Jan-20 08:00N 61°18' E 001°30'0 0.0 190 10.8 2.6 3.2-0.6
2018-Jan-20 07:00N 61°18' E 001°30'0 0.0 200 10.8 2.4 3.2-0.9
2018-Jan-20 06:00N 61°18' E 001°30'0 0.0 150 10.8 2.7 3.4-0.3
2018-Jan-20 05:00N 61°18' E 001°30'0 0.0 160 10.8 2.3 3.9-0.4
2018-Jan-20 04:00N 61°18' E 001°30'0 0.0 220 5.4 2.5 3.6-1.0
2018-Jan-20 03:00N 61°18' E 001°30'0 0.0 160 10.8 2.5 4.0-0.7
2018-Jan-20 02:00N 61°18' E 001°30'0 0.0 200 10.8 2.5 3.9-1.4
2018-Jan-20 01:00N 61°18' E 001°30'0 0.0 180 10.8 2.4 4.2-1.8
2018-Jan-20 00:00N 61°18' E 001°30'0 0.0 190 10.8 2.4 3.3-2.1
2018-Jan-19 23:00N 61°18' E 001°30'0 0.0 230 10.8 2.6 4.1-1.0
2018-Jan-19 22:00N 61°18' E 001°30'0 0.0 250 10.8 2.6 3.9-1.1
2018-Jan-19 21:00N 61°18' E 001°30'0 0.0 240 10.8 2.5 3.8-1.3
2018-Jan-19 20:00N 61°18' E 001°30'0 0.0 210 10.8 2.3 4.3-1.7
2018-Jan-19 19:00N 61°18' E 001°30'0 0.0 220 10.8 2.5 4.5-2.2
2018-Jan-19 18:00N 61°18' E 001°30'0 0.0 220 10.8 2.2 4.2-1.3
2018-Jan-19 17:00N 61°18' E 001°30'0 0.0 220 10.8 2.5 4.2-1.3
2018-Jan-19 16:00N 61°18' E 001°30'0 0.0 200 10.8 2.2 3.8-1.5
2018-Jan-19 15:00N 61°18' E 001°30'0 0.0 250 10.8 2.3 4.5-1.3
2018-Jan-19 14:00N 61°18' E 001°30'0 0.0 260 10.8 2.3 4.0-0.4
2018-Jan-19 13:00N 61°18' E 001°30'0 0.0 160 10.8 2.3 3.9 0.5
2018-Jan-19 12:00N 61°18' E 001°30'0 0.0 170 10.8 2.6 3.0-0.1
2018-Jan-19 11:00N 61°18' E 001°30'0 0.0 160 10.8 2.4 3.8-0.6
2018-Jan-19 10:00N 61°18' E 001°30'0 0.0 280 10.8 2.2 3.8-1.0
2018-Jan-19 09:00N 61°18' E 001°30'0 0.0 180 10.8 2.2 3.8-1.4
2018-Jan-19 08:00N 61°18' E 001°30'0 0.0 200 10.8 2.3 3.6-1.3
2018-Jan-19 07:00N 61°18' E 001°30'0 0.0 190 10.8 2.5 3.2-1.2
2018-Jan-19 06:00N 61°18' E 001°30'0 0.0 240 10.8 2.2 3.7-0.4
2018-Jan-19 05:00N 61°18' E 001°30'0 0.0 260 5.4 2.6 3.8-0.6
2018-Jan-19 04:00N 61°18' E 001°30'0 0.0 200 10.8 2.3 4.1-1.1
2018-Jan-19 03:00N 61°18' E 001°30'0 0.0 220 10.8 2.6 3.3-0.8
2018-Jan-19 02:00N 61°18' E 001°30'0 0.0 200 10.8 2.5 2.4-1.3
2018-Jan-19 01:00N 61°18' E 001°30'0 0.0 230 10.8 2.6 3.6-1.2
2018-Jan-19 00:00N 61°18' E 001°30'0 0.0 220 10.8 2.8 3.2-1.6
2018-Jan-18 23:00N 61°18' E 001°30'0 0.0 310 10.8 2.9 3.8 0.2
2018-Jan-18 22:00N 61°18' E 001°30'0 0.0 160 10.8 3.0 3.1-0.2
2018-Jan-18 21:00N 61°18' E 001°30'0 0.0 220 10.8 2.8 3.8-0.2
2018-Jan-18 20:00N 61°18' E 001°30'0 0.0 250 10.8 3.0 3.0-0.5
2018-Jan-18 19:00N 61°18' E 001°30'0 0.0 170 10.8 3.0 3.0-0.6
2018-Jan-18 18:00N 61°18' E 001°30'0 0.0 180 10.8 3.0 3.3-1.5
2018-Jan-18 17:00N 61°18' E 001°30'0 0.0 230 10.8 2.9 4.2-1.5
2018-Jan-18 16:00N 61°18' E 001°30'0 0.0 240 10.8 2.8 5.2-5.8
2018-Jan-18 15:00N 61°18' E 001°30'0 0.0 240 10.8 3.1 5.1-5.3
2018-Jan-18 14:00N 61°18' E 001°30'0 0.0 250 10.8 3.3 5.0-5.3
2018-Jan-18 13:00N 61°18' E 001°30'0 0.0 260 2.2 3.5 5.2-4.4
2018-Jan-18 12:00N 61°18' E 001°30'0 0.0 270 2.2 3.5 5.1-4.5
2018-Jan-18 11:00N 61°18' E 001°30'0 0.0 270 10.8 3.4 5.0-4.3
2018-Jan-18 10:00N 61°18' E 001°30'0 0.0 280 10.8 3.6 4.8-4.2
2018-Jan-18 09:00N 61°18' E 001°30'0 0.0 300 10.8 3.8 4.6-4.5
2018-Jan-18 08:00N 61°18' E 001°30'0 0.0 300 10.8 3.9 5.0-5.0
2018-Jan-18 07:00N 61°18' E 001°30'0 0.0 300 10.8 3.8 4.8-4.5
2018-Jan-18 06:00N 61°18' E 001°30'0 0.0 300 10.8 3.8 4.8-5.1
2018-Jan-18 05:00N 61°18' E 001°30'0 0.0 320 10.8 3.6 5.4-2.5
2018-Jan-18 04:00N 61°18' E 001°30'0 0.0 330 10.8 3.7 4.9-1.2
2018-Jan-18 03:00N 61°18' E 001°30'0 0.0 320 10.8 3.7 5.0-1.0
2018-Jan-18 02:00N 61°18' E 001°30'0 0.0 320 10.8 3.7 4.5-1.5
2018-Jan-18 01:00N 61°18' E 001°30'0 0.0 320 10.8 4.0 5.0-1.3
2018-Jan-18 00:00N 61°18' E 001°30'0 0.0 340 10.8 4.0 4.0-0.5
2018-Jan-17 23:00N 61°18' E 001°30'0 0.0 320 10.8 4.2 3.7-0.3
2018-Jan-17 22:00N 61°18' E 001°30'0 0.0 310 10.8 4.8 4.2-0.8
2018-Jan-17 21:00N 61°18' E 001°30'0 0.0 300 10.8 4.5 3.6-0.6
2018-Jan-17 20:00N 61°18' E 001°30'0 0.0 240 10.8 4.2 4.2-0.1
2018-Jan-17 19:00N 61°18' E 001°30'0 0.0 310 10.8 4.3 3.5-0.0
2018-Jan-17 18:00N 61°18' E 001°30'0 0.0 210 10.8 4.2 3.1-0.3
2018-Jan-17 17:00N 61°18' E 001°30'0 0.0 250 10.8 4.4 3.8-0.4
2018-Jan-17 16:00N 61°18' E 001°30'0 0.0 280 10.8 4.4 4.5-0.5
2018-Jan-17 15:00N 61°18' E 001°30'0 0.0 180 10.8 4.6 4.3-1.3
2018-Jan-17 14:00N 61°18' E 001°30'0 0.0 180 10.8 4.4 4.5-0.8
2018-Jan-17 13:00N 61°18' E 001°30'0 0.0 170 10.8 4.5 4.4-2.1
2018-Jan-17 12:00N 61°18' E 001°30'0 0.0 190 10.8 5.0 4.2-2.0
2018-Jan-17 11:00N 61°18' E 001°30'0 0.0 190 10.8 4.7 3.7-1.8
2018-Jan-17 10:00N 61°18' E 001°30'0 0.0 190 10.8 5.2 4.0-2.4
2018-Jan-17 09:00N 61°18' E 001°30'0 0.0 190 10.8 4.9 4.2-3.8
2018-Jan-17 08:00N 61°18' E 001°30'0 0.0 190 10.8 5.2 4.2-2.4
2018-Jan-17 07:00N 61°18' E 001°30'0 0.0 190 10.8 4.8 3.8-0.6
2018-Jan-17 06:00N 61°18' E 001°30'0 0.0 170 10.8 5.5 3.3-1.0
2018-Jan-17 05:00N 61°18' E 001°30'0 0.0 200 10.8 5.3 3.3-1.7
2018-Jan-17 04:00N 61°18' E 001°30'0 0.0 180 10.8 5.0 3.2-1.6
2018-Jan-17 03:00N 61°18' E 001°30'0 0.0 180 10.8 5.3 2.5-1.3
2018-Jan-17 02:00N 61°18' E 001°30'0 0.0 160 10.8 4.8 2.4-1.7
2018-Jan-17 01:00N 61°18' E 001°30'0 0.0 150 10.8 5.2 3.8-1.4
2018-Jan-17 00:00N 61°18' E 001°30'0 0.0 180 10.8 5.0 3.4-2.4
2018-Jan-16 23:00N 61°18' E 001°30'0 0.0 210 5.4 5.2 2.6-2.0
2018-Jan-16 22:00N 61°18' E 001°30'0 0.0 220 10.8 5.8 4.1-1.7
2018-Jan-16 21:00N 61°18' E 001°30'0 0.0 230 10.8 5.7 3.7-1.3
2018-Jan-16 20:00N 61°18' E 001°30'0 0.0 240 2.2 5.5 2.5-1.2
2018-Jan-16 07:00N 61°18' E 001°30'0 0.0 220 10.8 6.1 5.0-1.1
2018-Jan-16 06:00N 61°18' E 001°30'0 0.0 220 10.8 5.9 5.0-1.6
2018-Jan-16 05:00N 61°18' E 001°30'0 0.0 230 10.8 6.5 5.1-3.1
2018-Jan-16 04:00N 61°18' E 001°30'0 0.0 230 10.8 6.1 4.3-1.2
2018-Jan-16 03:00N 61°18' E 001°30'0 0.0 230 10.8 6.6 4.8-2.1
2018-Jan-16 02:00N 61°18' E 001°30'0 0.0 210 10.8 6.2 5.0-1.7
2018-Jan-16 01:00N 61°18' E 001°30'0 0.0 210 10.8 6.4 4.9-1.5
2018-Jan-16 00:00N 61°18' E 001°30'0 0.0 220 10.8 6.0 5.4-0.5
2018-Jan-15 23:00N 61°18' E 001°30'0 0.0 210 10.8 5.8 5.5-0.3
2018-Jan-15 22:00N 61°18' E 001°30'0 0.0 220 2.2 6.3 5.4-0.6
2018-Jan-15 21:00N 61°18' E 001°30'0 0.0 210 10.8 6.4 5.4 0.3
2018-Jan-15 20:00N 61°18' E 001°30'0 0.0 240 10.8 6.5 5.2 0.4
2018-Jan-15 17:00N 61°18' E 001°30'0 0.0 210 10.8 6.8 6.2 1.1
2018-Jan-15 16:00N 61°18' E 001°30'0 0.0 200 10.8 6.7 6.3 0.9
2018-Jan-15 15:00N 61°18' E 001°30'0 0.0 200 10.8 7.2 6.5 0.8
2018-Jan-15 14:00N 61°18' E 001°30'0 0.0 210 10.8 6.9 6.7 0.9
2018-Jan-15 13:00N 61°18' E 001°30'0 0.0 200 10.8 6.8 6.7 1.2
2018-Jan-15 12:00N 61°18' E 001°30'0 0.0 210 10.8 6.7 6.7 1.4
2018-Jan-15 11:00N 61°18' E 001°30'0 0.0 210 10.8 7.1 7.1 1.1
2018-Jan-15 10:00N 61°18' E 001°30'0 0.0 220 10.8 8.2 6.8 2.0
2018-Jan-15 09:00N 61°18' E 001°30'0 0.0 210 10.8 6.9 6.5 3.6
2018-Jan-15 08:00N 61°18' E 001°30'0 0.0 220 1.1 8.6 6.3 3.9
2018-Jan-15 07:00N 61°18' E 001°30'0 0.0 190 1.1 9.1 6.7 4.4
2018-Jan-15 06:00N 61°18' E 001°30'0 0.0 170 1.110.5 6.8 4.2
2018-Jan-15 05:00N 61°18' E 001°30'0 0.0 180 2.210.9 6.2 3.3
2018-Jan-15 04:00N 61°18' E 001°30'0 0.0 180 1.111.9 6.2 3.2
2018-Jan-15 03:00N 61°18' E 001°30'0 0.0 180 1.112.2 6.3 3.3
2018-Jan-15 02:00N 61°18' E 001°30'0 0.0 180 1.112.2 6.0 3.4
2018-Jan-15 01:00N 61°18' E 001°30'0 0.0 170 1.111.7 6.1 3.4
2018-Jan-15 00:00N 61°18' E 001°30'0 0.0 170 1.112.0 5.9 3.0
2018-Jan-14 23:00N 61°18' E 001°30'0 0.0 170 1.111.1 6.1 3.2
2018-Jan-14 22:00N 61°18' E 001°30'0 0.0 170 1.110.1 5.9 3.1
2018-Jan-14 21:00N 61°18' E 001°30'0 0.0 170 1.1 9.0 6.0 3.2
2018-Jan-14 20:00N 61°18' E 001°30'0 0.0 170 1.1 9.7 6.4 3.5
2018-Jan-14 19:00N 61°18' E 001°30'0 0.0 170 1.1 8.8 6.5 3.2
2018-Jan-14 18:00N 61°18' E 001°30'0 0.0 170 1.1 8.6 6.4 3.0
2018-Jan-14 17:00N 61°18' E 001°30'0 0.0 170 1.1 9.2 6.8 2.9
2018-Jan-14 16:00N 61°18' E 001°30'0 0.0 170 2.2 8.8 6.9 2.2
2018-Jan-14 15:00N 61°18' E 001°30'0 0.0 170 2.2 8.4 6.8 2.0
2018-Jan-14 14:00N 61°18' E 001°30'0 0.0 170 2.2 8.1 6.6 2.1
2018-Jan-14 13:00N 61°18' E 001°30'0 0.0 170 2.2 8.2 6.4 2.9
2018-Jan-14 12:00N 61°18' E 001°30'0 0.0 170 2.2 8.1 6.5 2.9
2018-Jan-14 11:00N 61°18' E 001°30'0 0.0 170 2.2 8.0 7.0 2.7
2018-Jan-14 10:00N 61°18' E 001°30'0 0.0 170 2.2 6.9 7.0 2.7
2018-Jan-14 09:00N 61°18' E 001°30'0 0.0 170 2.2 6.6 7.1 2.7
2018-Jan-14 08:00N 61°18' E 001°30'0 0.0 170 2.2 6.1 7.3 2.9
2018-Jan-14 07:00N 61°18' E 001°30'0 0.0 180 2.2 5.6 7.3 2.5
2018-Jan-14 06:00N 61°18' E 001°30'0 0.0 170 2.2 5.2 7.3 2.2
2018-Jan-14 05:00N 61°18' E 001°30'0 0.0 180 2.2 5.0 7.4 1.9
2018-Jan-14 04:00N 61°18' E 001°30'0 0.0 170 5.4 5.4 7.5 2.6
2018-Jan-14 03:00N 61°18' E 001°30'0 0.0 170 5.4 4.8 7.3 2.5
2018-Jan-14 02:00N 61°18' E 001°30'0 0.0 170 5.4 5.0 7.4 2.9
2018-Jan-14 01:00N 61°18' E 001°30'0 0.0 180 5.4 4.8 7.3 2.6
2018-Jan-14 00:00N 61°18' E 001°30'0 0.0 170 5.4 5.0 7.4 2.8
2018-Jan-13 23:00N 61°18' E 001°30'0 0.0 170 5.4 4.8 7.2 2.7
2018-Jan-12 15:00N 61°18' E 001°30'0 0.0 170 10.8 2.5 6.6 2.8
2018-Jan-12 14:00N 61°18' E 001°30'0 0.0 170 5.4 2.3 7.0 3.0
2018-Jan-12 13:00N 61°18' E 001°30'0 0.0 170 10.8 2.1 7.2 3.9
2018-Jan-12 12:00N 61°18' E 001°30'0 0.0 170 10.8 2.0 7.8 3.8
2018-Jan-12 11:00N 61°18' E 001°30'0 0.0 170 10.8 2.0 8.0 2.0
2018-Jan-12 10:00N 61°18' E 001°30'0 0.0 170 10.8 2.0 7.8 4.2
2018-Jan-12 09:00N 61°18' E 001°30'0 0.0 170 10.8 2.0 7.8 4.5
2018-Jan-12 08:00N 61°18' E 001°30'0 0.0 170 10.8 2.2 7.8 4.9
2018-Jan-12 07:00N 61°18' E 001°30'0 0.0 170 5.4 2.2 7.9 5.3
2018-Jan-12 06:00N 61°18' E 001°30'0 0.0 170 10.8 2.1 7.9 5.1
2018-Jan-12 05:00N 61°18' E 001°30'0 0.0 180 10.8 2.0 7.8 5.1
2018-Jan-12 04:00N 61°18' E 001°30'0 0.0 180 10.8 2.0 8.0 5.2
2018-Jan-12 03:00N 61°18' E 001°30'0 0.0 170 10.8 2.0 8.0 5.3
2018-Jan-12 02:00N 61°18' E 001°30'0 0.0 180 10.8 1.9 7.8 5.2
2018-Jan-12 01:00N 61°18' E 001°30'0 0.0 170 10.8 2.1 7.9 5.4
2018-Jan-12 00:00N 61°18' E 001°30'0 0.0 170 10.8 2.2 8.0 5.2
2018-Jan-11 23:00N 61°18' E 001°30'0 0.0 150 10.8 2.2 8.1 5.0
2018-Jan-11 22:00N 61°18' E 001°30'   140 10.8 2.1 8.5 4.7
Track history (hours):
 
Tides and Currents Weather Stations Pressure Air Temp Water Temp Dewpoint Dewpoint Depression Visibility Wind Speed Wind Dir Waves Ship Positions

Sedco 712

Last reported at 2018-Jan-21 22:00 UTC. Time now 2018-Jan-21 23:53 UTC.
Position N 61°18' E 001°30'.

Length 90 m; draft 7 m.

Type: Ship. MMSI: 577181000.

Wind from 170

Waves 2.0 meters (7 feet)

Air temperature 5.8 ° C
Visibility: greater than 10.8 NM
Dewpoint -0.2 ° C

Date/timePositionNaut miles runAvg speedWind from/ knotsBaromVisibWave heightAir tempDewpointWater temp
2018-Jan-21 22:00N 61°18' E 001°30'0 0.0 170 10.8 2.0 5.8-0.2
2018-Jan-21 21:00N 61°18' E 001°30'0 0.0 170 10.8 1.8 5.4-0.3
2018-Jan-21 20:00N 61°18' E 001°30'0 0.0 160 10.8 1.6 5.5 0.3
2018-Jan-21 19:00N 61°18' E 001°30'0 0.0 160 10.8 1.6 5.0-0.4
2018-Jan-21 18:00N 61°18' E 001°30'0 0.0 150 10.8 1.5 5.7-0.0
2018-Jan-21 17:00N 61°18' E 001°30'0 0.0 150 10.8 1.5 5.3-1.9
2018-Jan-21 16:00N 61°18' E 001°30'0 0.0 160 10.8 1.6 5.2-1.3
2018-Jan-21 15:00N 61°18' E 001°30'0 0.0 170
2018-Jan-21 14:00N 61°18' E 001°30'0 0.0
2018-Jan-21 13:00N 61°18' E 001°30'0 0.0
2018-Jan-21 10:00N 61°18' E 001°30'0 0.0 200 10.8 1.8 4.3-1.0
2018-Jan-21 09:00N 61°18' E 001°30'0 0.0 220 10.8 1.8 4.6-0.5
2018-Jan-21 08:00N 61°18' E 001°30'0 0.0 330 10.8 1.8 4.6-0.6
2018-Jan-21 07:00N 61°18' E 001°30'0 0.0 320 10.8 1.8 4.9-0.2
2018-Jan-21 06:00N 61°18' E 001°30'0 0.0 220 10.8 1.9 3.6-1.3
2018-Jan-21 05:00N 61°18' E 001°30'0 0.0 300 5.4 2.0 4.6-1.0
2018-Jan-21 04:00N 61°18' E 001°30'0 0.0 310 10.8 1.9 5.0-0.9
2018-Jan-21 03:00N 61°18' E 001°30'0 0.0 310 10.8 2.1 5.0-1.5
2018-Jan-21 02:00N 61°18' E 001°30'0 0.0 310 10.8 2.0 5.0-1.0
2018-Jan-21 01:00N 61°18' E 001°30'0 0.0 320 10.8 2.1 4.7-0.9
2018-Jan-21 00:00N 61°18' E 001°30'0 0.0 320 10.8 2.0 4.2-1.0
2018-Jan-20 23:00N 61°18' E 001°30'0 0.0 300 10.8 2.3 4.2-0.2
2018-Jan-20 22:00N 61°18' E 001°30'0 0.0 030 10.8 2.3 3.3-0.4
2018-Jan-20 21:00N 61°18' E 001°30'0 0.0 030 10.8 2.3 3.1-0.6
2018-Jan-20 20:00N 61°18' E 001°30'0 0.0 020 10.8 2.1 3.9-0.2
2018-Jan-20 19:00N 61°18' E 001°30'0 0.0 060 10.8 2.6 3.8-0.3
2018-Jan-20 18:00N 61°18' E 001°30'0 0.0 020 10.8 2.3 4.7-1.6
2018-Jan-20 17:00N 61°18' E 001°30'0 0.0 010 10.8 2.4 4.2-1.6
2018-Jan-20 16:00N 61°18' E 001°30'0 0.0 360 10.8 2.5 4.0-1.5
2018-Jan-20 15:00N 61°18' E 001°30'0 0.0 240 10.8 2.5 3.4-1.2
2018-Jan-20 14:00N 61°18' E 001°30'0 0.0 150 10.8 2.7 3.2-1.0
2018-Jan-20 13:00N 61°18' E 001°30'0 0.0 120 10.8 2.8 3.7-0.8
2018-Jan-20 12:00N 61°18' E 001°30'0 0.0 130 10.8 2.9 4.9-0.2
2018-Jan-20 11:00N 61°18' E 001°30'0 0.0 160 10.8 2.6 4.3-1.7
2018-Jan-20 10:00N 61°18' E 001°30'0 0.0 160 10.8 2.5 4.1-1.2
2018-Jan-20 09:00N 61°18' E 001°30'0 0.0 160 10.8 2.6 3.2-1.5
2018-Jan-20 08:00N 61°18' E 001°30'0 0.0 190 10.8 2.6 3.2-0.6
2018-Jan-20 07:00N 61°18' E 001°30'0 0.0 200 10.8 2.4 3.2-0.9
2018-Jan-20 06:00N 61°18' E 001°30'0 0.0 150 10.8 2.7 3.4-0.3
2018-Jan-20 05:00N 61°18' E 001°30'0 0.0 160 10.8 2.3 3.9-0.4
2018-Jan-20 04:00N 61°18' E 001°30'0 0.0 220 5.4 2.5 3.6-1.0
2018-Jan-20 03:00N 61°18' E 001°30'0 0.0 160 10.8 2.5 4.0-0.7
2018-Jan-20 02:00N 61°18' E 001°30'0 0.0 200 10.8 2.5 3.9-1.4
2018-Jan-20 01:00N 61°18' E 001°30'0 0.0 180 10.8 2.4 4.2-1.8
2018-Jan-20 00:00N 61°18' E 001°30'0 0.0 190 10.8 2.4 3.3-2.1
2018-Jan-19 23:00N 61°18' E 001°30'0 0.0 230 10.8 2.6 4.1-1.0
2018-Jan-19 22:00N 61°18' E 001°30'0 0.0 250 10.8 2.6 3.9-1.1
2018-Jan-19 21:00N 61°18' E 001°30'0 0.0 240 10.8 2.5 3.8-1.3
2018-Jan-19 20:00N 61°18' E 001°30'0 0.0 210 10.8 2.3 4.3-1.7
2018-Jan-19 19:00N 61°18' E 001°30'0 0.0 220 10.8 2.5 4.5-2.2
2018-Jan-19 18:00N 61°18' E 001°30'0 0.0 220 10.8 2.2 4.2-1.3
2018-Jan-19 17:00N 61°18' E 001°30'0 0.0 220 10.8 2.5 4.2-1.3
2018-Jan-19 16:00N 61°18' E 001°30'0 0.0 200 10.8 2.2 3.8-1.5
2018-Jan-19 15:00N 61°18' E 001°30'0 0.0 250 10.8 2.3 4.5-1.3
2018-Jan-19 14:00N 61°18' E 001°30'0 0.0 260 10.8 2.3 4.0-0.4
2018-Jan-19 13:00N 61°18' E 001°30'0 0.0 160 10.8 2.3 3.9 0.5
2018-Jan-19 12:00N 61°18' E 001°30'0 0.0 170 10.8 2.6 3.0-0.1
2018-Jan-19 11:00N 61°18' E 001°30'0 0.0 160 10.8 2.4 3.8-0.6
2018-Jan-19 10:00N 61°18' E 001°30'0 0.0 280 10.8 2.2 3.8-1.0
2018-Jan-19 09:00N 61°18' E 001°30'0 0.0 180 10.8 2.2 3.8-1.4
2018-Jan-19 08:00N 61°18' E 001°30'0 0.0 200 10.8 2.3 3.6-1.3
2018-Jan-19 07:00N 61°18' E 001°30'0 0.0 190 10.8 2.5 3.2-1.2
2018-Jan-19 06:00N 61°18' E 001°30'0 0.0 240 10.8 2.2 3.7-0.4
2018-Jan-19 05:00N 61°18' E 001°30'0 0.0 260 5.4 2.6 3.8-0.6
2018-Jan-19 04:00N 61°18' E 001°30'0 0.0 200 10.8 2.3 4.1-1.1
2018-Jan-19 03:00N 61°18' E 001°30'0 0.0 220 10.8 2.6 3.3-0.8
2018-Jan-19 02:00N 61°18' E 001°30'0 0.0 200 10.8 2.5 2.4-1.3
2018-Jan-19 01:00N 61°18' E 001°30'0 0.0 230 10.8 2.6 3.6-1.2
2018-Jan-19 00:00N 61°18' E 001°30'0 0.0 220 10.8 2.8 3.2-1.6
2018-Jan-18 23:00N 61°18' E 001°30'0 0.0 310 10.8 2.9 3.8 0.2
2018-Jan-18 22:00N 61°18' E 001°30'0 0.0 160 10.8 3.0 3.1-0.2
2018-Jan-18 21:00N 61°18' E 001°30'0 0.0 220 10.8 2.8 3.8-0.2
2018-Jan-18 20:00N 61°18' E 001°30'0 0.0 250 10.8 3.0 3.0-0.5
2018-Jan-18 19:00N 61°18' E 001°30'0 0.0 170 10.8 3.0 3.0-0.6
2018-Jan-18 18:00N 61°18' E 001°30'0 0.0 180 10.8 3.0 3.3-1.5
2018-Jan-18 17:00N 61°18' E 001°30'0 0.0 230 10.8 2.9 4.2-1.5
2018-Jan-18 16:00N 61°18' E 001°30'0 0.0 240 10.8 2.8 5.2-5.8
2018-Jan-18 15:00N 61°18' E 001°30'0 0.0 240 10.8 3.1 5.1-5.3
2018-Jan-18 14:00N 61°18' E 001°30'0 0.0 250 10.8 3.3 5.0-5.3
2018-Jan-18 13:00N 61°18' E 001°30'0 0.0 260 2.2 3.5 5.2-4.4
2018-Jan-18 12:00N 61°18' E 001°30'0 0.0 270 2.2 3.5 5.1-4.5
2018-Jan-18 11:00N 61°18' E 001°30'0 0.0 270 10.8 3.4 5.0-4.3
2018-Jan-18 10:00N 61°18' E 001°30'0 0.0 280 10.8 3.6 4.8-4.2
2018-Jan-18 09:00N 61°18' E 001°30'0 0.0 300 10.8 3.8 4.6-4.5
2018-Jan-18 08:00N 61°18' E 001°30'0 0.0 300 10.8 3.9 5.0-5.0
2018-Jan-18 07:00N 61°18' E 001°30'0 0.0 300 10.8 3.8 4.8-4.5
2018-Jan-18 06:00N 61°18' E 001°30'0 0.0 300 10.8 3.8 4.8-5.1
2018-Jan-18 05:00N 61°18' E 001°30'0 0.0 320 10.8 3.6 5.4-2.5
2018-Jan-18 04:00N 61°18' E 001°30'0 0.0 330 10.8 3.7 4.9-1.2
2018-Jan-18 03:00N 61°18' E 001°30'0 0.0 320 10.8 3.7 5.0-1.0
2018-Jan-18 02:00N 61°18' E 001°30'0 0.0 320 10.8 3.7 4.5-1.5
2018-Jan-18 01:00N 61°18' E 001°30'0 0.0 320 10.8 4.0 5.0-1.3
2018-Jan-18 00:00N 61°18' E 001°30'0 0.0 340 10.8 4.0 4.0-0.5
2018-Jan-17 23:00N 61°18' E 001°30'0 0.0 320 10.8 4.2 3.7-0.3
2018-Jan-17 22:00N 61°18' E 001°30'0 0.0 310 10.8 4.8 4.2-0.8
2018-Jan-17 21:00N 61°18' E 001°30'0 0.0 300 10.8 4.5 3.6-0.6
2018-Jan-17 20:00N 61°18' E 001°30'0 0.0 240 10.8 4.2 4.2-0.1
2018-Jan-17 19:00N 61°18' E 001°30'0 0.0 310 10.8 4.3 3.5-0.0
2018-Jan-17 18:00N 61°18' E 001°30'0 0.0 210 10.8 4.2 3.1-0.3
2018-Jan-17 17:00N 61°18' E 001°30'0 0.0 250 10.8 4.4 3.8-0.4
2018-Jan-17 16:00N 61°18' E 001°30'0 0.0 280 10.8 4.4 4.5-0.5
2018-Jan-17 15:00N 61°18' E 001°30'0 0.0 180 10.8 4.6 4.3-1.3
2018-Jan-17 14:00N 61°18' E 001°30'0 0.0 180 10.8 4.4 4.5-0.8
2018-Jan-17 13:00N 61°18' E 001°30'0 0.0 170 10.8 4.5 4.4-2.1
2018-Jan-17 12:00N 61°18' E 001°30'0 0.0 190 10.8 5.0 4.2-2.0
2018-Jan-17 11:00N 61°18' E 001°30'0 0.0 190 10.8 4.7 3.7-1.8
2018-Jan-17 10:00N 61°18' E 001°30'0 0.0 190 10.8 5.2 4.0-2.4
2018-Jan-17 09:00N 61°18' E 001°30'0 0.0 190 10.8 4.9 4.2-3.8
2018-Jan-17 08:00N 61°18' E 001°30'0 0.0 190 10.8 5.2 4.2-2.4
2018-Jan-17 07:00N 61°18' E 001°30'0 0.0 190 10.8 4.8 3.8-0.6
2018-Jan-17 06:00N 61°18' E 001°30'0 0.0 170 10.8 5.5 3.3-1.0
2018-Jan-17 05:00N 61°18' E 001°30'0 0.0 200 10.8 5.3 3.3-1.7
2018-Jan-17 04:00N 61°18' E 001°30'0 0.0 180 10.8 5.0 3.2-1.6
2018-Jan-17 03:00N 61°18' E 001°30'0 0.0 180 10.8 5.3 2.5-1.3
2018-Jan-17 02:00N 61°18' E 001°30'0 0.0 160 10.8 4.8 2.4-1.7
2018-Jan-17 01:00N 61°18' E 001°30'0 0.0 150 10.8 5.2 3.8-1.4
2018-Jan-17 00:00N 61°18' E 001°30'0 0.0 180 10.8 5.0 3.4-2.4
2018-Jan-16 23:00N 61°18' E 001°30'0 0.0 210 5.4 5.2 2.6-2.0
2018-Jan-16 22:00N 61°18' E 001°30'0 0.0 220 10.8 5.8 4.1-1.7
2018-Jan-16 21:00N 61°18' E 001°30'0 0.0 230 10.8 5.7 3.7-1.3
2018-Jan-16 20:00N 61°18' E 001°30'0 0.0 240 2.2 5.5 2.5-1.2
2018-Jan-16 07:00N 61°18' E 001°30'0 0.0 220 10.8 6.1 5.0-1.1
2018-Jan-16 06:00N 61°18' E 001°30'0 0.0 220 10.8 5.9 5.0-1.6
2018-Jan-16 05:00N 61°18' E 001°30'0 0.0 230 10.8 6.5 5.1-3.1
2018-Jan-16 04:00N 61°18' E 001°30'0 0.0 230 10.8 6.1 4.3-1.2
2018-Jan-16 03:00N 61°18' E 001°30'0 0.0 230 10.8 6.6 4.8-2.1
2018-Jan-16 02:00N 61°18' E 001°30'0 0.0 210 10.8 6.2 5.0-1.7
2018-Jan-16 01:00N 61°18' E 001°30'0 0.0 210 10.8 6.4 4.9-1.5
2018-Jan-16 00:00N 61°18' E 001°30'0 0.0 220 10.8 6.0 5.4-0.5
2018-Jan-15 23:00N 61°18' E 001°30'0 0.0 210 10.8 5.8 5.5-0.3
2018-Jan-15 22:00N 61°18' E 001°30'0 0.0 220 2.2 6.3 5.4-0.6
2018-Jan-15 21:00N 61°18' E 001°30'0 0.0 210 10.8 6.4 5.4 0.3
2018-Jan-15 20:00N 61°18' E 001°30'0 0.0 240 10.8 6.5 5.2 0.4
2018-Jan-15 17:00N 61°18' E 001°30'0 0.0 210 10.8 6.8 6.2 1.1
2018-Jan-15 16:00N 61°18' E 001°30'0 0.0 200 10.8 6.7 6.3 0.9
2018-Jan-15 15:00N 61°18' E 001°30'0 0.0 200 10.8 7.2 6.5 0.8
2018-Jan-15 14:00N 61°18' E 001°30'0 0.0 210 10.8 6.9 6.7 0.9
2018-Jan-15 13:00N 61°18' E 001°30'0 0.0 200 10.8 6.8 6.7 1.2
2018-Jan-15 12:00N 61°18' E 001°30'0 0.0 210 10.8 6.7 6.7 1.4
2018-Jan-15 11:00N 61°18' E 001°30'0 0.0 210 10.8 7.1 7.1 1.1
2018-Jan-15 10:00N 61°18' E 001°30'0 0.0 220 10.8 8.2 6.8 2.0
2018-Jan-15 09:00N 61°18' E 001°30'0 0.0 210 10.8 6.9 6.5 3.6
2018-Jan-15 08:00N 61°18' E 001°30'0 0.0 220 1.1 8.6 6.3 3.9
2018-Jan-15 07:00N 61°18' E 001°30'0 0.0 190 1.1 9.1 6.7 4.4
2018-Jan-15 06:00N 61°18' E 001°30'0 0.0 170 1.110.5 6.8 4.2
2018-Jan-15 05:00N 61°18' E 001°30'0 0.0 180 2.210.9 6.2 3.3
2018-Jan-15 04:00N 61°18' E 001°30'0 0.0 180 1.111.9 6.2 3.2
2018-Jan-15 03:00N 61°18' E 001°30'0 0.0 180 1.112.2 6.3 3.3
2018-Jan-15 02:00N 61°18' E 001°30'0 0.0 180 1.112.2 6.0 3.4
2018-Jan-15 01:00N 61°18' E 001°30'0 0.0 170 1.111.7 6.1 3.4
2018-Jan-15 00:00N 61°18' E 001°30'0 0.0 170 1.112.0 5.9 3.0
2018-Jan-14 23:00N 61°18' E 001°30'0 0.0 170 1.111.1 6.1 3.2
2018-Jan-14 22:00N 61°18' E 001°30'0 0.0 170 1.110.1 5.9 3.1
2018-Jan-14 21:00N 61°18' E 001°30'0 0.0 170 1.1 9.0 6.0 3.2
2018-Jan-14 20:00N 61°18' E 001°30'0 0.0 170 1.1 9.7 6.4 3.5
2018-Jan-14 19:00N 61°18' E 001°30'0 0.0 170 1.1 8.8 6.5 3.2
2018-Jan-14 18:00N 61°18' E 001°30'0 0.0 170 1.1 8.6 6.4 3.0
2018-Jan-14 17:00N 61°18' E 001°30'0 0.0 170 1.1 9.2 6.8 2.9
2018-Jan-14 16:00N 61°18' E 001°30'0 0.0 170 2.2 8.8 6.9 2.2
2018-Jan-14 15:00N 61°18' E 001°30'0 0.0 170 2.2 8.4 6.8 2.0
2018-Jan-14 14:00N 61°18' E 001°30'0 0.0 170 2.2 8.1 6.6 2.1
2018-Jan-14 13:00N 61°18' E 001°30'0 0.0 170 2.2 8.2 6.4 2.9
2018-Jan-14 12:00N 61°18' E 001°30'0 0.0 170 2.2 8.1 6.5 2.9
2018-Jan-14 11:00N 61°18' E 001°30'0 0.0 170 2.2 8.0 7.0 2.7
2018-Jan-14 10:00N 61°18' E 001°30'0 0.0 170 2.2 6.9 7.0 2.7
2018-Jan-14 09:00N 61°18' E 001°30'0 0.0 170 2.2 6.6 7.1 2.7
2018-Jan-14 08:00N 61°18' E 001°30'0 0.0 170 2.2 6.1 7.3 2.9
2018-Jan-14 07:00N 61°18' E 001°30'0 0.0 180 2.2 5.6 7.3 2.5
2018-Jan-14 06:00N 61°18' E 001°30'0 0.0 170 2.2 5.2 7.3 2.2
2018-Jan-14 05:00N 61°18' E 001°30'0 0.0 180 2.2 5.0 7.4 1.9
2018-Jan-14 04:00N 61°18' E 001°30'0 0.0 170 5.4 5.4 7.5 2.6
2018-Jan-14 03:00N 61°18' E 001°30'0 0.0 170 5.4 4.8 7.3 2.5
2018-Jan-14 02:00N 61°18' E 001°30'0 0.0 170 5.4 5.0 7.4 2.9
2018-Jan-14 01:00N 61°18' E 001°30'0 0.0 180 5.4 4.8 7.3 2.6
2018-Jan-14 00:00N 61°18' E 001°30'0 0.0 170 5.4 5.0 7.4 2.8
2018-Jan-13 23:00N 61°18' E 001°30'0 0.0 170 5.4 4.8 7.2 2.7
2018-Jan-12 15:00N 61°18' E 001°30'0 0.0 170 10.8 2.5 6.6 2.8
2018-Jan-12 14:00N 61°18' E 001°30'0 0.0 170 5.4 2.3 7.0 3.0
2018-Jan-12 13:00N 61°18' E 001°30'0 0.0 170 10.8 2.1 7.2 3.9
2018-Jan-12 12:00N 61°18' E 001°30'0 0.0 170 10.8 2.0 7.8 3.8
2018-Jan-12 11:00N 61°18' E 001°30'0 0.0 170 10.8 2.0 8.0 2.0
2018-Jan-12 10:00N 61°18' E 001°30'0 0.0 170 10.8 2.0 7.8 4.2
2018-Jan-12 09:00N 61°18' E 001°30'0 0.0 170 10.8 2.0 7.8 4.5
2018-Jan-12 08:00N 61°18' E 001°30'0 0.0 170 10.8 2.2 7.8 4.9
2018-Jan-12 07:00N 61°18' E 001°30'0 0.0 170 5.4 2.2 7.9 5.3
2018-Jan-12 06:00N 61°18' E 001°30'0 0.0 170 10.8 2.1 7.9 5.1
2018-Jan-12 05:00N 61°18' E 001°30'0 0.0 180 10.8 2.0 7.8 5.1
2018-Jan-12 04:00N 61°18' E 001°30'0 0.0 180 10.8 2.0 8.0 5.2
2018-Jan-12 03:00N 61°18' E 001°30'0 0.0 170 10.8 2.0 8.0 5.3
2018-Jan-12 02:00N 61°18' E 001°30'0 0.0 180 10.8 1.9 7.8 5.2
2018-Jan-12 01:00N 61°18' E 001°30'0 0.0 170 10.8 2.1 7.9 5.4
2018-Jan-12 00:00N 61°18' E 001°30'0 0.0 170 10.8 2.2 8.0 5.2
2018-Jan-11 23:00N 61°18' E 001°30'0 0.0 150 10.8 2.2 8.1 5.0
2018-Jan-11 22:00N 61°18' E 001°30'   140 10.8 2.1 8.5 4.7

Dump ship's entire track history